sensor_id;sensor_type;location;lat;lon;timestamp;P1;durP1;ratioP1;P2;durP2;ratioP2
31836;SDS011;18401;49.344;6.240;2023-01-28T00:00:32;12.77;;;6.90;;
31836;SDS011;18401;49.344;6.240;2023-01-28T00:02:58;10.45;;;6.90;;
31836;SDS011;18401;49.344;6.240;2023-01-28T00:05:24;12.02;;;7.43;;
31836;SDS011;18401;49.344;6.240;2023-01-28T00:07:49;9.82;;;6.72;;
31836;SDS011;18401;49.344;6.240;2023-01-28T00:10:15;11.93;;;7.07;;
31836;SDS011;18401;49.344;6.240;2023-01-28T00:12:41;11.27;;;7.00;;
31836;SDS011;18401;49.344;6.240;2023-01-28T00:15:07;10.30;;;6.90;;
31836;SDS011;18401;49.344;6.240;2023-01-28T00:17:34;12.00;;;7.75;;
31836;SDS011;18401;49.344;6.240;2023-01-28T00:20:01;12.52;;;7.78;;
31836;SDS011;18401;49.344;6.240;2023-01-28T00:22:27;10.65;;;6.90;;
31836;SDS011;18401;49.344;6.240;2023-01-28T00:24:53;14.07;;;7.90;;
31836;SDS011;18401;49.344;6.240;2023-01-28T00:27:19;13.77;;;7.35;;
31836;SDS011;18401;49.344;6.240;2023-01-28T00:29:44;11.73;;;7.47;;
31836;SDS011;18401;49.344;6.240;2023-01-28T00:32:10;13.45;;;7.70;;
31836;SDS011;18401;49.344;6.240;2023-01-28T00:34:36;12.57;;;7.95;;
31836;SDS011;18401;49.344;6.240;2023-01-28T00:37:01;12.38;;;7.72;;
31836;SDS011;18401;49.344;6.240;2023-01-28T00:39:27;12.00;;;7.35;;
31836;SDS011;18401;49.344;6.240;2023-01-28T00:41:53;14.20;;;8.38;;
31836;SDS011;18401;49.344;6.240;2023-01-28T00:44:19;13.13;;;7.85;;
31836;SDS011;18401;49.344;6.240;2023-01-28T00:46:45;11.98;;;7.57;;
31836;SDS011;18401;49.344;6.240;2023-01-28T00:49:10;13.40;;;8.27;;
31836;SDS011;18401;49.344;6.240;2023-01-28T00:51:36;11.05;;;8.02;;
31836;SDS011;18401;49.344;6.240;2023-01-28T00:54:02;12.07;;;7.65;;
31836;SDS011;18401;49.344;6.240;2023-01-28T00:56:28;14.68;;;8.05;;
31836;SDS011;18401;49.344;6.240;2023-01-28T00:58:54;10.93;;;6.97;;
31836;SDS011;18401;49.344;6.240;2023-01-28T01:01:21;11.38;;;7.60;;
31836;SDS011;18401;49.344;6.240;2023-01-28T01:03:48;10.68;;;7.00;;
31836;SDS011;18401;49.344;6.240;2023-01-28T01:06:22;9.27;;;6.90;;
31836;SDS011;18401;49.344;6.240;2023-01-28T01:08:49;11.85;;;7.50;;
31836;SDS011;18401;49.344;6.240;2023-01-28T01:11:15;11.70;;;7.55;;
31836;SDS011;18401;49.344;6.240;2023-01-28T01:13:41;12.85;;;6.50;;
31836;SDS011;18401;49.344;6.240;2023-01-28T01:16:09;11.23;;;7.03;;
31836;SDS011;18401;49.344;6.240;2023-01-28T01:18:40;10.82;;;7.03;;
31836;SDS011;18401;49.344;6.240;2023-01-28T01:21:07;11.25;;;7.03;;
31836;SDS011;18401;49.344;6.240;2023-01-28T01:23:34;10.95;;;7.15;;
31836;SDS011;18401;49.344;6.240;2023-01-28T01:26:00;14.10;;;8.05;;
31836;SDS011;18401;49.344;6.240;2023-01-28T01:28:26;11.43;;;7.00;;
31836;SDS011;18401;49.344;6.240;2023-01-28T01:30:58;11.68;;;7.22;;
31836;SDS011;18401;49.344;6.240;2023-01-28T01:33:26;10.48;;;6.95;;
31836;SDS011;18401;49.344;6.240;2023-01-28T01:35:53;10.93;;;6.53;;
31836;SDS011;18401;49.344;6.240;2023-01-28T01:38:20;12.00;;;7.40;;
31836;SDS011;18401;49.344;6.240;2023-01-28T01:40:46;12.77;;;7.38;;
31836;SDS011;18401;49.344;6.240;2023-01-28T01:43:18;12.43;;;7.25;;
31836;SDS011;18401;49.344;6.240;2023-01-28T01:45:49;12.52;;;6.47;;
31836;SDS011;18401;49.344;6.240;2023-01-28T01:48:22;12.10;;;7.22;;
31836;SDS011;18401;49.344;6.240;2023-01-28T01:51:03;10.65;;;6.63;;
31836;SDS011;18401;49.344;6.240;2023-01-28T01:53:37;10.75;;;6.60;;
31836;SDS011;18401;49.344;6.240;2023-01-28T01:56:06;15.07;;;7.93;;
31836;SDS011;18401;49.344;6.240;2023-01-28T01:58:35;10.27;;;6.28;;
31836;SDS011;18401;49.344;6.240;2023-01-28T02:01:04;10.43;;;6.30;;
31836;SDS011;18401;49.344;6.240;2023-01-28T02:03:33;12.38;;;7.28;;
31836;SDS011;18401;49.344;6.240;2023-01-28T02:06:09;11.75;;;6.55;;
31836;SDS011;18401;49.344;6.240;2023-01-28T02:08:35;10.90;;;6.45;;
31836;SDS011;18401;49.344;6.240;2023-01-28T02:11:02;11.52;;;6.75;;
31836;SDS011;18401;49.344;6.240;2023-01-28T02:13:31;10.13;;;6.75;;
31836;SDS011;18401;49.344;6.240;2023-01-28T02:16:01;11.88;;;6.47;;
31836;SDS011;18401;49.344;6.240;2023-01-28T02:18:28;11.70;;;6.63;;
31836;SDS011;18401;49.344;6.240;2023-01-28T02:31:51;9.88;;;6.05;;
31836;SDS011;18401;49.344;6.240;2023-01-28T02:34:42;9.07;;;6.07;;
31836;SDS011;18401;49.344;6.240;2023-01-28T02:39:59;8.88;;;5.82;;
31836;SDS011;18401;49.344;6.240;2023-01-28T02:42:29;12.00;;;6.93;;
31836;SDS011;18401;49.344;6.240;2023-01-28T02:44:58;8.88;;;5.63;;
31836;SDS011;18401;49.344;6.240;2023-01-28T02:47:24;11.77;;;5.57;;
31836;SDS011;18401;49.344;6.240;2023-01-28T02:50:10;9.52;;;6.32;;
31836;SDS011;18401;49.344;6.240;2023-01-28T02:56:00;9.70;;;6.15;;
31836;SDS011;18401;49.344;6.240;2023-01-28T02:59:06;9.80;;;5.85;;
31836;SDS011;18401;49.344;6.240;2023-01-28T03:01:56;10.43;;;6.28;;
31836;SDS011;18401;49.344;6.240;2023-01-28T03:04:37;9.05;;;5.78;;
31836;SDS011;18401;49.344;6.240;2023-01-28T03:07:09;9.90;;;5.65;;
31836;SDS011;18401;49.344;6.240;2023-01-28T03:09:38;9.30;;;6.32;;
31836;SDS011;18401;49.344;6.240;2023-01-28T03:12:17;8.30;;;5.95;;
31836;SDS011;18401;49.344;6.240;2023-01-28T03:15:09;9.45;;;6.68;;
31836;SDS011;18401;49.344;6.240;2023-01-28T03:18:16;9.18;;;6.15;;
31836;SDS011;18401;49.344;6.240;2023-01-28T03:23:59;9.05;;;5.47;;
31836;SDS011;18401;49.344;6.240;2023-01-28T03:26:55;13.68;;;6.20;;
31836;SDS011;18401;49.344;6.240;2023-01-28T03:29:50;10.38;;;5.85;;
31836;SDS011;18401;49.344;6.240;2023-01-28T03:32:39;9.32;;;6.13;;
31836;SDS011;18401;49.344;6.240;2023-01-28T03:35:24;10.45;;;5.60;;
31836;SDS011;18401;49.344;6.240;2023-01-28T03:38:13;9.77;;;5.97;;
31836;SDS011;18401;49.344;6.240;2023-01-28T03:40:51;9.18;;;5.68;;
31836;SDS011;18401;49.344;6.240;2023-01-28T03:45:45;12.07;;;6.63;;
31836;SDS011;18401;49.344;6.240;2023-01-28T03:48:15;9.98;;;6.38;;
31836;SDS011;18401;49.344;6.240;2023-01-28T03:50:44;12.82;;;6.82;;
31836;SDS011;18401;49.344;6.240;2023-01-28T03:53:10;9.20;;;5.80;;
31836;SDS011;18401;49.344;6.240;2023-01-28T03:55:37;12.25;;;6.55;;
31836;SDS011;18401;49.344;6.240;2023-01-28T03:58:03;12.68;;;6.93;;
31836;SDS011;18401;49.344;6.240;2023-01-28T04:00:30;10.73;;;6.60;;
31836;SDS011;18401;49.344;6.240;2023-01-28T04:02:56;10.52;;;6.43;;
31836;SDS011;18401;49.344;6.240;2023-01-28T04:05:23;10.98;;;6.80;;
31836;SDS011;18401;49.344;6.240;2023-01-28T04:07:49;11.48;;;6.38;;
31836;SDS011;18401;49.344;6.240;2023-01-28T04:10:18;8.80;;;6.20;;
31836;SDS011;18401;49.344;6.240;2023-01-28T04:12:44;10.30;;;6.50;;
31836;SDS011;18401;49.344;6.240;2023-01-28T04:15:13;11.77;;;6.85;;
31836;SDS011;18401;49.344;6.240;2023-01-28T04:17:47;8.50;;;5.70;;
31836;SDS011;18401;49.344;6.240;2023-01-28T04:20:13;9.05;;;5.88;;
31836;SDS011;18401;49.344;6.240;2023-01-28T04:22:39;10.35;;;6.30;;
31836;SDS011;18401;49.344;6.240;2023-01-28T04:25:05;9.20;;;6.30;;
31836;SDS011;18401;49.344;6.240;2023-01-28T04:27:31;10.55;;;5.95;;
31836;SDS011;18401;49.344;6.240;2023-01-28T04:29:57;11.30;;;5.97;;
31836;SDS011;18401;49.344;6.240;2023-01-28T04:32:22;12.90;;;5.93;;
31836;SDS011;18401;49.344;6.240;2023-01-28T04:34:48;10.88;;;6.05;;
31836;SDS011;18401;49.344;6.240;2023-01-28T04:37:14;10.60;;;6.75;;
31836;SDS011;18401;49.344;6.240;2023-01-28T04:39:39;15.68;;;6.20;;
31836;SDS011;18401;49.344;6.240;2023-01-28T04:42:05;13.52;;;7.30;;
31836;SDS011;18401;49.344;6.240;2023-01-28T04:44:31;11.45;;;7.30;;
31836;SDS011;18401;49.344;6.240;2023-01-28T04:46:56;11.02;;;6.25;;
31836;SDS011;18401;49.344;6.240;2023-01-28T04:49:22;12.13;;;6.90;;
31836;SDS011;18401;49.344;6.240;2023-01-28T04:51:48;11.20;;;6.80;;
31836;SDS011;18401;49.344;6.240;2023-01-28T04:54:13;10.20;;;6.60;;
31836;SDS011;18401;49.344;6.240;2023-01-28T04:56:39;9.50;;;6.55;;
31836;SDS011;18401;49.344;6.240;2023-01-28T04:59:04;9.10;;;5.85;;
31836;SDS011;18401;49.344;6.240;2023-01-28T05:01:30;9.68;;;5.88;;
31836;SDS011;18401;49.344;6.240;2023-01-28T05:03:56;8.98;;;5.90;;
31836;SDS011;18401;49.344;6.240;2023-01-28T05:06:21;10.57;;;6.28;;
31836;SDS011;18401;49.344;6.240;2023-01-28T05:08:47;10.60;;;6.47;;
31836;SDS011;18401;49.344;6.240;2023-01-28T05:11:13;10.98;;;6.47;;
31836;SDS011;18401;49.344;6.240;2023-01-28T05:13:39;9.45;;;5.78;;
31836;SDS011;18401;49.344;6.240;2023-01-28T05:16:04;10.70;;;6.40;;
31836;SDS011;18401;49.344;6.240;2023-01-28T05:18:30;10.20;;;6.63;;
31836;SDS011;18401;49.344;6.240;2023-01-28T05:20:56;11.43;;;6.43;;
31836;SDS011;18401;49.344;6.240;2023-01-28T05:23:22;15.70;;;6.45;;
31836;SDS011;18401;49.344;6.240;2023-01-28T05:25:48;9.43;;;6.13;;
31836;SDS011;18401;49.344;6.240;2023-01-28T05:28:14;10.90;;;6.45;;
31836;SDS011;18401;49.344;6.240;2023-01-28T05:30:40;13.13;;;6.43;;
31836;SDS011;18401;49.344;6.240;2023-01-28T05:33:06;8.73;;;5.97;;
31836;SDS011;18401;49.344;6.240;2023-01-28T05:35:32;9.20;;;6.35;;
31836;SDS011;18401;49.344;6.240;2023-01-28T05:37:57;9.60;;;6.50;;
31836;SDS011;18401;49.344;6.240;2023-01-28T05:40:23;8.68;;;5.72;;
31836;SDS011;18401;49.344;6.240;2023-01-28T05:42:49;10.18;;;5.80;;
31836;SDS011;18401;49.344;6.240;2023-01-28T05:45:15;8.32;;;5.32;;
31836;SDS011;18401;49.344;6.240;2023-01-28T05:47:40;8.15;;;5.75;;
31836;SDS011;18401;49.344;6.240;2023-01-28T05:50:06;8.65;;;5.90;;
31836;SDS011;18401;49.344;6.240;2023-01-28T05:52:33;11.85;;;6.40;;
31836;SDS011;18401;49.344;6.240;2023-01-28T05:54:58;8.48;;;5.65;;
31836;SDS011;18401;49.344;6.240;2023-01-28T05:57:25;8.52;;;5.47;;
31836;SDS011;18401;49.344;6.240;2023-01-28T05:59:51;9.32;;;5.95;;
31836;SDS011;18401;49.344;6.240;2023-01-28T06:02:16;9.90;;;5.78;;
31836;SDS011;18401;49.344;6.240;2023-01-28T06:04:42;9.75;;;5.63;;
31836;SDS011;18401;49.344;6.240;2023-01-28T06:07:07;8.05;;;4.97;;
31836;SDS011;18401;49.344;6.240;2023-01-28T06:09:33;9.13;;;5.68;;
31836;SDS011;18401;49.344;6.240;2023-01-28T06:11:59;10.13;;;5.78;;
31836;SDS011;18401;49.344;6.240;2023-01-28T06:14:25;9.88;;;5.47;;
31836;SDS011;18401;49.344;6.240;2023-01-28T06:16:50;13.18;;;5.63;;
31836;SDS011;18401;49.344;6.240;2023-01-28T06:19:16;7.65;;;5.25;;
31836;SDS011;18401;49.344;6.240;2023-01-28T06:21:42;8.73;;;5.72;;
31836;SDS011;18401;49.344;6.240;2023-01-28T06:24:07;7.15;;;5.13;;
31836;SDS011;18401;49.344;6.240;2023-01-28T06:26:33;6.18;;;4.82;;
31836;SDS011;18401;49.344;6.240;2023-01-28T06:28:59;7.47;;;4.70;;
31836;SDS011;18401;49.344;6.240;2023-01-28T06:31:25;8.93;;;5.32;;
31836;SDS011;18401;49.344;6.240;2023-01-28T06:33:50;8.73;;;5.22;;
31836;SDS011;18401;49.344;6.240;2023-01-28T06:36:16;8.57;;;5.38;;
31836;SDS011;18401;49.344;6.240;2023-01-28T06:38:42;8.50;;;5.38;;
31836;SDS011;18401;49.344;6.240;2023-01-28T06:41:08;10.68;;;5.90;;
31836;SDS011;18401;49.344;6.240;2023-01-28T06:43:33;8.02;;;5.40;;
31836;SDS011;18401;49.344;6.240;2023-01-28T06:45:59;7.40;;;4.93;;
31836;SDS011;18401;49.344;6.240;2023-01-28T06:48:25;8.05;;;4.78;;
31836;SDS011;18401;49.344;6.240;2023-01-28T06:50:52;7.97;;;4.90;;
31836;SDS011;18401;49.344;6.240;2023-01-28T06:53:18;10.32;;;6.32;;
31836;SDS011;18401;49.344;6.240;2023-01-28T06:55:44;9.75;;;5.75;;
31836;SDS011;18401;49.344;6.240;2023-01-28T06:58:10;11.23;;;5.45;;
31836;SDS011;18401;49.344;6.240;2023-01-28T07:00:36;10.52;;;6.22;;
31836;SDS011;18401;49.344;6.240;2023-01-28T07:03:02;11.00;;;5.90;;
31836;SDS011;18401;49.344;6.240;2023-01-28T07:05:28;9.23;;;5.88;;
31836;SDS011;18401;49.344;6.240;2023-01-28T07:07:54;12.40;;;6.35;;
31836;SDS011;18401;49.344;6.240;2023-01-28T07:10:19;10.52;;;6.43;;
31836;SDS011;18401;49.344;6.240;2023-01-28T07:12:45;11.65;;;6.03;;
31836;SDS011;18401;49.344;6.240;2023-01-28T07:15:11;27.45;;;11.93;;
31836;SDS011;18401;49.344;6.240;2023-01-28T07:17:46;12.98;;;8.63;;
31836;SDS011;18401;49.344;6.240;2023-01-28T07:20:13;18.97;;;9.07;;
31836;SDS011;18401;49.344;6.240;2023-01-28T07:22:40;13.35;;;7.13;;
31836;SDS011;18401;49.344;6.240;2023-01-28T07:25:06;12.30;;;6.90;;
31836;SDS011;18401;49.344;6.240;2023-01-28T07:27:33;13.70;;;6.95;;
31836;SDS011;18401;49.344;6.240;2023-01-28T07:29:59;12.32;;;6.35;;
31836;SDS011;18401;49.344;6.240;2023-01-28T07:32:24;10.38;;;6.85;;
31836;SDS011;18401;49.344;6.240;2023-01-28T07:34:51;13.88;;;6.60;;
31836;SDS011;18401;49.344;6.240;2023-01-28T07:37:17;13.68;;;7.00;;
31836;SDS011;18401;49.344;6.240;2023-01-28T07:39:43;13.55;;;6.13;;
31836;SDS011;18401;49.344;6.240;2023-01-28T07:42:09;11.90;;;6.68;;
31836;SDS011;18401;49.344;6.240;2023-01-28T07:44:35;12.40;;;6.85;;
31836;SDS011;18401;49.344;6.240;2023-01-28T07:47:02;11.13;;;7.03;;
31836;SDS011;18401;49.344;6.240;2023-01-28T07:49:27;10.05;;;6.70;;
31836;SDS011;18401;49.344;6.240;2023-01-28T07:51:53;11.98;;;6.78;;
31836;SDS011;18401;49.344;6.240;2023-01-28T07:54:19;10.23;;;6.15;;
31836;SDS011;18401;49.344;6.240;2023-01-28T07:56:44;10.43;;;6.72;;
31836;SDS011;18401;49.344;6.240;2023-01-28T07:59:10;17.17;;;6.57;;
31836;SDS011;18401;49.344;6.240;2023-01-28T08:01:36;12.85;;;6.97;;
31836;SDS011;18401;49.344;6.240;2023-01-28T08:04:02;10.90;;;6.68;;
31836;SDS011;18401;49.344;6.240;2023-01-28T08:06:28;10.32;;;6.65;;
31836;SDS011;18401;49.344;6.240;2023-01-28T08:08:53;8.77;;;5.88;;
31836;SDS011;18401;49.344;6.240;2023-01-28T08:11:19;16.13;;;5.82;;
31836;SDS011;18401;49.344;6.240;2023-01-28T08:13:45;14.68;;;8.13;;
31836;SDS011;18401;49.344;6.240;2023-01-28T08:16:13;13.90;;;6.97;;
31836;SDS011;18401;49.344;6.240;2023-01-28T08:18:38;13.10;;;7.40;;
31836;SDS011;18401;49.344;6.240;2023-01-28T08:21:04;14.80;;;7.75;;
31836;SDS011;18401;49.344;6.240;2023-01-28T08:23:30;15.85;;;8.23;;
31836;SDS011;18401;49.344;6.240;2023-01-28T08:25:58;15.65;;;8.10;;
31836;SDS011;18401;49.344;6.240;2023-01-28T08:28:25;11.55;;;6.78;;
31836;SDS011;18401;49.344;6.240;2023-01-28T08:30:51;10.35;;;6.70;;
31836;SDS011;18401;49.344;6.240;2023-01-28T08:33:17;9.48;;;6.10;;
31836;SDS011;18401;49.344;6.240;2023-01-28T08:35:44;6.40;;;5.18;;
31836;SDS011;18401;49.344;6.240;2023-01-28T08:38:13;10.15;;;5.10;;
31836;SDS011;18401;49.344;6.240;2023-01-28T08:40:39;6.05;;;4.28;;
31836;SDS011;18401;49.344;6.240;2023-01-28T08:43:05;4.78;;;4.20;;
31836;SDS011;18401;49.344;6.240;2023-01-28T08:45:31;7.07;;;4.63;;
31836;SDS011;18401;49.344;6.240;2023-01-28T08:47:58;5.85;;;4.28;;
31836;SDS011;18401;49.344;6.240;2023-01-28T08:50:26;6.82;;;4.82;;
31836;SDS011;18401;49.344;6.240;2023-01-28T08:52:57;5.80;;;4.63;;
31836;SDS011;18401;49.344;6.240;2023-01-28T08:55:24;11.32;;;5.25;;
31836;SDS011;18401;49.344;6.240;2023-01-28T08:57:51;6.30;;;4.45;;
31836;SDS011;18401;49.344;6.240;2023-01-28T09:00:17;7.75;;;4.68;;
31836;SDS011;18401;49.344;6.240;2023-01-28T09:02:43;5.45;;;4.65;;
31836;SDS011;18401;49.344;6.240;2023-01-28T09:05:09;6.53;;;4.32;;
31836;SDS011;18401;49.344;6.240;2023-01-28T09:07:35;7.10;;;4.10;;
31836;SDS011;18401;49.344;6.240;2023-01-28T09:10:03;6.30;;;4.20;;
31836;SDS011;18401;49.344;6.240;2023-01-28T09:12:29;6.57;;;4.43;;
31836;SDS011;18401;49.344;6.240;2023-01-28T09:14:55;9.45;;;4.63;;
31836;SDS011;18401;49.344;6.240;2023-01-28T09:17:21;10.05;;;5.18;;
31836;SDS011;18401;49.344;6.240;2023-01-28T09:19:47;8.80;;;4.85;;
31836;SDS011;18401;49.344;6.240;2023-01-28T09:22:13;8.30;;;4.95;;
31836;SDS011;18401;49.344;6.240;2023-01-28T09:24:39;7.15;;;4.60;;
31836;SDS011;18401;49.344;6.240;2023-01-28T09:27:04;7.95;;;4.10;;
31836;SDS011;18401;49.344;6.240;2023-01-28T09:29:32;5.72;;;4.40;;
31836;SDS011;18401;49.344;6.240;2023-01-28T09:31:58;5.43;;;4.38;;
31836;SDS011;18401;49.344;6.240;2023-01-28T09:34:24;5.28;;;3.75;;
31836;SDS011;18401;49.344;6.240;2023-01-28T09:36:49;10.18;;;4.65;;
31836;SDS011;18401;49.344;6.240;2023-01-28T09:39:15;7.32;;;4.70;;
31836;SDS011;18401;49.344;6.240;2023-01-28T09:46:47;7.78;;;4.85;;
31836;SDS011;18401;49.344;6.240;2023-01-28T09:49:16;6.63;;;4.75;;
31836;SDS011;18401;49.344;6.240;2023-01-28T09:51:58;9.02;;;5.03;;
31836;SDS011;18401;49.344;6.240;2023-01-28T09:54:41;6.43;;;4.55;;
31836;SDS011;18401;49.344;6.240;2023-01-28T09:57:24;7.82;;;4.47;;
31836;SDS011;18401;49.344;6.240;2023-01-28T09:59:51;10.27;;;4.15;;
31836;SDS011;18401;49.344;6.240;2023-01-28T10:05:05;7.40;;;4.93;;
31836;SDS011;18401;49.344;6.240;2023-01-28T10:08:10;6.53;;;4.25;;
31836;SDS011;18401;49.344;6.240;2023-01-28T10:13:49;6.53;;;4.60;;
31836;SDS011;18401;49.344;6.240;2023-01-28T10:16:36;8.60;;;3.97;;
31836;SDS011;18401;49.344;6.240;2023-01-28T10:19:10;6.25;;;4.43;;
31836;SDS011;18401;49.344;6.240;2023-01-28T10:21:53;8.07;;;3.92;;
31836;SDS011;18401;49.344;6.240;2023-01-28T10:24:34;7.25;;;4.55;;
31836;SDS011;18401;49.344;6.240;2023-01-28T10:27:09;6.45;;;4.57;;
31836;SDS011;18401;49.344;6.240;2023-01-28T10:29:39;5.55;;;4.03;;
31836;SDS011;18401;49.344;6.240;2023-01-28T10:34:58;5.28;;;3.60;;
31836;SDS011;18401;49.344;6.240;2023-01-28T10:37:25;4.75;;;3.97;;
31836;SDS011;18401;49.344;6.240;2023-01-28T10:39:56;7.35;;;4.05;;
31836;SDS011;18401;49.344;6.240;2023-01-28T10:42:28;4.15;;;3.67;;
31836;SDS011;18401;49.344;6.240;2023-01-28T10:45:02;5.53;;;4.03;;
31836;SDS011;18401;49.344;6.240;2023-01-28T10:47:43;5.40;;;4.03;;
31836;SDS011;18401;49.344;6.240;2023-01-28T10:50:30;8.85;;;4.70;;
31836;SDS011;18401;49.344;6.240;2023-01-28T10:53:04;6.10;;;4.75;;
31836;SDS011;18401;49.344;6.240;2023-01-28T10:55:43;6.85;;;4.88;;
31836;SDS011;18401;49.344;6.240;2023-01-28T10:58:13;6.47;;;4.35;;
31836;SDS011;18401;49.344;6.240;2023-01-28T11:00:45;8.07;;;5.10;;
31836;SDS011;18401;49.344;6.240;2023-01-28T11:03:22;6.95;;;4.82;;
31836;SDS011;18401;49.344;6.240;2023-01-28T11:05:51;8.02;;;5.30;;
31836;SDS011;18401;49.344;6.240;2023-01-28T11:08:18;7.22;;;4.85;;
31836;SDS011;18401;49.344;6.240;2023-01-28T11:10:46;11.02;;;5.63;;
31836;SDS011;18401;49.344;6.240;2023-01-28T11:13:25;10.45;;;4.82;;
31836;SDS011;18401;49.344;6.240;2023-01-28T11:16:02;7.35;;;4.80;;
31836;SDS011;18401;49.344;6.240;2023-01-28T11:18:39;8.23;;;5.03;;
31836;SDS011;18401;49.344;6.240;2023-01-28T11:21:32;6.75;;;4.28;;
31836;SDS011;18401;49.344;6.240;2023-01-28T11:24:00;6.88;;;4.82;;
31836;SDS011;18401;49.344;6.240;2023-01-28T11:26:37;6.45;;;4.32;;
31836;SDS011;18401;49.344;6.240;2023-01-28T11:29:17;7.15;;;4.88;;
31836;SDS011;18401;49.344;6.240;2023-01-28T11:31:48;6.55;;;4.45;;
31836;SDS011;18401;49.344;6.240;2023-01-28T11:34:15;8.77;;;4.50;;
31836;SDS011;18401;49.344;6.240;2023-01-28T11:36:48;6.35;;;4.47;;
31836;SDS011;18401;49.344;6.240;2023-01-28T11:39:22;7.40;;;4.53;;
31836;SDS011;18401;49.344;6.240;2023-01-28T11:41:50;4.45;;;3.72;;
31836;SDS011;18401;49.344;6.240;2023-01-28T11:44:18;6.03;;;4.20;;
31836;SDS011;18401;49.344;6.240;2023-01-28T11:50:04;7.47;;;4.03;;
31836;SDS011;18401;49.344;6.240;2023-01-28T11:52:52;5.70;;;4.10;;
31836;SDS011;18401;49.344;6.240;2023-01-28T11:57:58;5.82;;;4.18;;
31836;SDS011;18401;49.344;6.240;2023-01-28T12:00:52;6.28;;;4.00;;
31836;SDS011;18401;49.344;6.240;2023-01-28T12:11:36;5.78;;;3.40;;
31836;SDS011;18401;49.344;6.240;2023-01-28T12:25:04;5.75;;;3.55;;
31836;SDS011;18401;49.344;6.240;2023-01-28T12:30:55;7.65;;;4.03;;
31836;SDS011;18401;49.344;6.240;2023-01-28T12:34:06;5.15;;;3.38;;
31836;SDS011;18401;49.344;6.240;2023-01-28T12:36:50;3.33;;;2.78;;
31836;SDS011;18401;49.344;6.240;2023-01-28T12:39:35;4.78;;;3.45;;
31836;SDS011;18401;49.344;6.240;2023-01-28T12:42:22;3.58;;;2.90;;
31836;SDS011;18401;49.344;6.240;2023-01-28T12:48:14;3.72;;;2.95;;
31836;SDS011;18401;49.344;6.240;2023-01-28T12:50:47;6.38;;;4.20;;
31836;SDS011;18401;49.344;6.240;2023-01-28T12:56:02;4.97;;;3.50;;
31836;SDS011;18401;49.344;6.240;2023-01-28T12:58:34;6.35;;;3.28;;
31836;SDS011;18401;49.344;6.240;2023-01-28T13:01:08;3.35;;;2.92;;
31836;SDS011;18401;49.344;6.240;2023-01-28T13:03:42;2.80;;;2.50;;
31836;SDS011;18401;49.344;6.240;2023-01-28T13:06:31;2.83;;;2.63;;
31836;SDS011;18401;49.344;6.240;2023-01-28T13:09:01;3.95;;;2.70;;
31836;SDS011;18401;49.344;6.240;2023-01-28T13:11:35;4.30;;;2.80;;
31836;SDS011;18401;49.344;6.240;2023-01-28T13:14:02;6.97;;;2.65;;
31836;SDS011;18401;49.344;6.240;2023-01-28T13:16:29;8.45;;;4.68;;
31836;SDS011;18401;49.344;6.240;2023-01-28T13:19:06;5.45;;;3.30;;
31836;SDS011;18401;49.344;6.240;2023-01-28T13:21:44;2.67;;;2.47;;
31836;SDS011;18401;49.344;6.240;2023-01-28T13:26:55;4.40;;;2.72;;
31836;SDS011;18401;49.344;6.240;2023-01-28T13:32:01;2.90;;;2.47;;
31836;SDS011;18401;49.344;6.240;2023-01-28T13:34:55;4.47;;;2.80;;
31836;SDS011;18401;49.344;6.240;2023-01-28T13:39:56;2.55;;;2.35;;
31836;SDS011;18401;49.344;6.240;2023-01-28T13:45:38;7.20;;;4.68;;
31836;SDS011;18401;49.344;6.240;2023-01-28T13:51:09;3.35;;;3.05;;
31836;SDS011;18401;49.344;6.240;2023-01-28T13:56:30;2.92;;;2.65;;
31836;SDS011;18401;49.344;6.240;2023-01-28T14:13:09;3.05;;;2.60;;
31836;SDS011;18401;49.344;6.240;2023-01-28T14:18:34;2.55;;;2.35;;
31836;SDS011;18401;49.344;6.240;2023-01-28T14:21:07;4.30;;;2.70;;
31836;SDS011;18401;49.344;6.240;2023-01-28T14:23:36;4.95;;;2.72;;
31836;SDS011;18401;49.344;6.240;2023-01-28T14:26:16;2.95;;;2.65;;
31836;SDS011;18401;49.344;6.240;2023-01-28T14:31:35;2.35;;;2.10;;
31836;SDS011;18401;49.344;6.240;2023-01-28T14:34:05;6.72;;;5.20;;
31836;SDS011;18401;49.344;6.240;2023-01-28T14:36:50;3.55;;;2.83;;
31836;SDS011;18401;49.344;6.240;2023-01-28T14:39:26;2.47;;;2.28;;
31836;SDS011;18401;49.344;6.240;2023-01-28T14:41:56;3.15;;;2.30;;
31836;SDS011;18401;49.344;6.240;2023-01-28T14:46:59;3.38;;;2.97;;
31836;SDS011;18401;49.344;6.240;2023-01-28T14:49:54;2.83;;;2.20;;
31836;SDS011;18401;49.344;6.240;2023-01-28T14:55:19;3.22;;;2.50;;
31836;SDS011;18401;49.344;6.240;2023-01-28T14:57:49;4.13;;;2.78;;
31836;SDS011;18401;49.344;6.240;2023-01-28T15:00:22;2.78;;;2.47;;
31836;SDS011;18401;49.344;6.240;2023-01-28T15:02:51;4.13;;;2.40;;
31836;SDS011;18401;49.344;6.240;2023-01-28T15:05:24;2.67;;;2.47;;
31836;SDS011;18401;49.344;6.240;2023-01-28T15:07:51;4.10;;;2.65;;
31836;SDS011;18401;49.344;6.240;2023-01-28T15:10:19;3.75;;;2.70;;
31836;SDS011;18401;49.344;6.240;2023-01-28T15:12:56;3.70;;;2.22;;
31836;SDS011;18401;49.344;6.240;2023-01-28T15:15:30;3.33;;;2.40;;
31836;SDS011;18401;49.344;6.240;2023-01-28T15:18:03;3.15;;;2.10;;
31836;SDS011;18401;49.344;6.240;2023-01-28T15:20:43;3.80;;;2.05;;
31836;SDS011;18401;49.344;6.240;2023-01-28T15:23:12;3.58;;;2.65;;
31836;SDS011;18401;49.344;6.240;2023-01-28T15:25:41;4.47;;;2.80;;
31836;SDS011;18401;49.344;6.240;2023-01-28T15:28:08;2.40;;;2.20;;
31836;SDS011;18401;49.344;6.240;2023-01-28T15:30:43;3.85;;;2.63;;
31836;SDS011;18401;49.344;6.240;2023-01-28T15:33:12;5.85;;;3.03;;
31836;SDS011;18401;49.344;6.240;2023-01-28T15:35:54;3.53;;;2.88;;
31836;SDS011;18401;49.344;6.240;2023-01-28T15:38:22;7.25;;;3.92;;
31836;SDS011;18401;49.344;6.240;2023-01-28T15:40:59;7.57;;;4.60;;
31836;SDS011;18401;49.344;6.240;2023-01-28T15:43:28;13.65;;;5.72;;
31836;SDS011;18401;49.344;6.240;2023-01-28T15:45:56;7.97;;;3.47;;
31836;SDS011;18401;49.344;6.240;2023-01-28T15:48:23;6.32;;;4.20;;
31836;SDS011;18401;49.344;6.240;2023-01-28T15:51:01;6.50;;;3.83;;
31836;SDS011;18401;49.344;6.240;2023-01-28T15:53:44;9.20;;;4.40;;
31836;SDS011;18401;49.344;6.240;2023-01-28T15:56:13;9.15;;;4.05;;
31836;SDS011;18401;49.344;6.240;2023-01-28T15:58:40;17.67;;;7.00;;
31836;SDS011;18401;49.344;6.240;2023-01-28T16:03:32;3.40;;;2.80;;
31836;SDS011;18401;49.344;6.240;2023-01-28T16:06:01;3.30;;;2.35;;
31836;SDS011;18401;49.344;6.240;2023-01-28T16:08:40;2.88;;;2.65;;
31836;SDS011;18401;49.344;6.240;2023-01-28T16:11:10;2.60;;;2.40;;
31836;SDS011;18401;49.344;6.240;2023-01-28T16:13:39;2.50;;;2.30;;
31836;SDS011;18401;49.344;6.240;2023-01-28T16:16:07;2.67;;;2.47;;
31836;SDS011;18401;49.344;6.240;2023-01-28T16:18:47;5.47;;;3.20;;
31836;SDS011;18401;49.344;6.240;2023-01-28T16:21:20;3.78;;;2.90;;
31836;SDS011;18401;49.344;6.240;2023-01-28T16:26:25;4.57;;;2.78;;
31836;SDS011;18401;49.344;6.240;2023-01-28T16:28:52;5.97;;;3.15;;
31836;SDS011;18401;49.344;6.240;2023-01-28T16:31:18;3.90;;;3.13;;
31836;SDS011;18401;49.344;6.240;2023-01-28T16:33:44;3.90;;;3.05;;
31836;SDS011;18401;49.344;6.240;2023-01-28T16:36:11;3.63;;;2.85;;
31836;SDS011;18401;49.344;6.240;2023-01-28T16:38:38;2.75;;;2.55;;
31836;SDS011;18401;49.344;6.240;2023-01-28T16:41:05;2.65;;;2.42;;
31836;SDS011;18401;49.344;6.240;2023-01-28T16:43:36;3.17;;;2.55;;
31836;SDS011;18401;49.344;6.240;2023-01-28T16:46:02;2.83;;;2.47;;
31836;SDS011;18401;49.344;6.240;2023-01-28T16:48:27;3.10;;;2.65;;
31836;SDS011;18401;49.344;6.240;2023-01-28T16:50:54;5.32;;;2.50;;
31836;SDS011;18401;49.344;6.240;2023-01-28T16:53:22;3.05;;;2.75;;
31836;SDS011;18401;49.344;6.240;2023-01-28T16:55:53;5.28;;;3.75;;
31836;SDS011;18401;49.344;6.240;2023-01-28T16:58:20;4.68;;;2.97;;